sensor_id;sensor_type;location;lat;lon;timestamp;temperature;humidity
19060;DHT22;9663;48.996;8.334;2022-07-23T00:02:06;27.10;44.30
19060;DHT22;9663;48.996;8.334;2022-07-23T00:04:32;27.10;44.30
19060;DHT22;9663;48.996;8.334;2022-07-23T00:06:59;27.00;44.30
19060;DHT22;9663;48.996;8.334;2022-07-23T00:09:25;27.00;44.30
19060;DHT22;9663;48.996;8.334;2022-07-23T00:11:50;27.00;44.30
19060;DHT22;9663;48.996;8.334;2022-07-23T00:14:16;27.00;44.40
19060;DHT22;9663;48.996;8.334;2022-07-23T00:16:42;26.90;44.30
19060;DHT22;9663;48.996;8.334;2022-07-23T00:19:08;27.00;44.40
19060;DHT22;9663;48.996;8.334;2022-07-23T00:21:34;27.00;44.50
19060;DHT22;9663;48.996;8.334;2022-07-23T00:24:00;26.90;44.40
19060;DHT22;9663;48.996;8.334;2022-07-23T00:26:25;26.90;44.50
19060;DHT22;9663;48.996;8.334;2022-07-23T00:28:51;26.80;44.30
19060;DHT22;9663;48.996;8.334;2022-07-23T00:31:17;26.80;44.40
19060;DHT22;9663;48.996;8.334;2022-07-23T00:33:42;26.80;44.50
19060;DHT22;9663;48.996;8.334;2022-07-23T00:36:08;26.70;44.60
19060;DHT22;9663;48.996;8.334;2022-07-23T00:38:34;26.70;44.60
19060;DHT22;9663;48.996;8.334;2022-07-23T00:40:59;26.60;44.60
19060;DHT22;9663;48.996;8.334;2022-07-23T00:43:25;26.60;44.60
19060;DHT22;9663;48.996;8.334;2022-07-23T00:45:51;26.50;44.50
19060;DHT22;9663;48.996;8.334;2022-07-23T00:48:17;26.50;44.70
19060;DHT22;9663;48.996;8.334;2022-07-23T00:50:43;26.50;44.60
19060;DHT22;9663;48.996;8.334;2022-07-23T00:53:09;26.50;44.70
19060;DHT22;9663;48.996;8.334;2022-07-23T00:55:35;26.40;44.70
19060;DHT22;9663;48.996;8.334;2022-07-23T00:58:02;26.40;44.80
19060;DHT22;9663;48.996;8.334;2022-07-23T01:00:28;26.30;44.80
19060;DHT22;9663;48.996;8.334;2022-07-23T01:02:54;26.20;44.80
19060;DHT22;9663;48.996;8.334;2022-07-23T01:05:19;26.20;44.90
19060;DHT22;9663;48.996;8.334;2022-07-23T01:07:49;26.10;44.90
19060;DHT22;9663;48.996;8.334;2022-07-23T01:10:15;26.10;45.10
19060;DHT22;9663;48.996;8.334;2022-07-23T01:12:57;26.00;45.00
19060;DHT22;9663;48.996;8.334;2022-07-23T01:15:23;26.00;45.10
19060;DHT22;9663;48.996;8.334;2022-07-23T01:17:49;26.00;45.90
19060;DHT22;9663;48.996;8.334;2022-07-23T01:20:15;25.90;45.20
19060;DHT22;9663;48.996;8.334;2022-07-23T01:22:41;25.90;45.30
19060;DHT22;9663;48.996;8.334;2022-07-23T01:25:08;25.80;45.30
19060;DHT22;9663;48.996;8.334;2022-07-23T01:27:34;25.80;45.40
19060;DHT22;9663;48.996;8.334;2022-07-23T01:30:01;25.80;45.60
19060;DHT22;9663;48.996;8.334;2022-07-23T01:32:28;25.70;45.70
19060;DHT22;9663;48.996;8.334;2022-07-23T01:34:54;25.70;45.70
19060;DHT22;9663;48.996;8.334;2022-07-23T01:37:19;25.60;45.70
19060;DHT22;9663;48.996;8.334;2022-07-23T01:39:45;25.60;45.80
19060;DHT22;9663;48.996;8.334;2022-07-23T01:42:11;25.50;45.90
19060;DHT22;9663;48.996;8.334;2022-07-23T01:44:36;25.50;46.00
19060;DHT22;9663;48.996;8.334;2022-07-23T01:47:02;25.40;45.90
19060;DHT22;9663;48.996;8.334;2022-07-23T01:49:28;25.30;46.00
19060;DHT22;9663;48.996;8.334;2022-07-23T01:51:54;25.30;46.00
19060;DHT22;9663;48.996;8.334;2022-07-23T01:54:30;25.30;46.10
19060;DHT22;9663;48.996;8.334;2022-07-23T01:56:57;25.20;46.30
19060;DHT22;9663;48.996;8.334;2022-07-23T01:59:23;25.20;46.20
19060;DHT22;9663;48.996;8.334;2022-07-23T02:01:50;25.10;46.20
19060;DHT22;9663;48.996;8.334;2022-07-23T02:04:20;25.10;46.40
19060;DHT22;9663;48.996;8.334;2022-07-23T02:06:47;25.00;46.50
19060;DHT22;9663;48.996;8.334;2022-07-23T02:09:13;25.00;46.30
19060;DHT22;9663;48.996;8.334;2022-07-23T02:11:39;24.90;46.40
19060;DHT22;9663;48.996;8.334;2022-07-23T02:14:05;24.90;46.50
19060;DHT22;9663;48.996;8.334;2022-07-23T02:16:31;24.80;46.50
19060;DHT22;9663;48.996;8.334;2022-07-23T02:18:57;24.80;46.70
19060;DHT22;9663;48.996;8.334;2022-07-23T02:21:22;24.70;46.70
19060;DHT22;9663;48.996;8.334;2022-07-23T02:23:48;24.70;46.80
19060;DHT22;9663;48.996;8.334;2022-07-23T02:26:14;24.60;46.80
19060;DHT22;9663;48.996;8.334;2022-07-23T02:28:40;24.60;46.80
19060;DHT22;9663;48.996;8.334;2022-07-23T02:31:05;24.60;46.80
19060;DHT22;9663;48.996;8.334;2022-07-23T02:33:32;24.50;46.80
19060;DHT22;9663;48.996;8.334;2022-07-23T02:35:58;24.50;46.90
19060;DHT22;9663;48.996;8.334;2022-07-23T02:38:24;24.50;47.00
19060;DHT22;9663;48.996;8.334;2022-07-23T02:40:50;24.40;47.00
19060;DHT22;9663;48.996;8.334;2022-07-23T02:43:16;24.40;47.10
19060;DHT22;9663;48.996;8.334;2022-07-23T02:45:42;24.40;47.10
19060;DHT22;9663;48.996;8.334;2022-07-23T02:48:07;24.30;47.10
19060;DHT22;9663;48.996;8.334;2022-07-23T02:50:33;24.30;47.10
19060;DHT22;9663;48.996;8.334;2022-07-23T02:52:59;24.30;47.20
19060;DHT22;9663;48.996;8.334;2022-07-23T02:55:24;24.30;47.30
19060;DHT22;9663;48.996;8.334;2022-07-23T02:57:50;24.30;47.30
19060;DHT22;9663;48.996;8.334;2022-07-23T03:00:16;24.30;47.40
19060;DHT22;9663;48.996;8.334;2022-07-23T03:02:42;24.30;47.40
19060;DHT22;9663;48.996;8.334;2022-07-23T03:05:08;24.30;47.40
19060;DHT22;9663;48.996;8.334;2022-07-23T03:07:34;24.30;48.00
19060;DHT22;9663;48.996;8.334;2022-07-23T03:10:00;24.20;47.30
19060;DHT22;9663;48.996;8.334;2022-07-23T03:12:26;24.30;47.30
19060;DHT22;9663;48.996;8.334;2022-07-23T03:14:51;24.30;48.00
19060;DHT22;9663;48.996;8.334;2022-07-23T03:17:17;24.30;47.40
19060;DHT22;9663;48.996;8.334;2022-07-23T03:19:43;24.30;47.40
19060;DHT22;9663;48.996;8.334;2022-07-23T03:22:08;24.30;47.30
19060;DHT22;9663;48.996;8.334;2022-07-23T03:24:34;24.30;48.00
19060;DHT22;9663;48.996;8.334;2022-07-23T03:27:18;24.30;47.40
19060;DHT22;9663;48.996;8.334;2022-07-23T03:29:44;24.30;47.20
19060;DHT22;9663;48.996;8.334;2022-07-23T03:32:10;24.30;47.20
19060;DHT22;9663;48.996;8.334;2022-07-23T03:34:36;24.30;47.30
19060;DHT22;9663;48.996;8.334;2022-07-23T03:37:02;24.30;47.30
19060;DHT22;9663;48.996;8.334;2022-07-23T03:39:28;24.30;47.30
19060;DHT22;9663;48.996;8.334;2022-07-23T03:41:54;24.30;47.30
19060;DHT22;9663;48.996;8.334;2022-07-23T03:44:19;24.30;47.30
19060;DHT22;9663;48.996;8.334;2022-07-23T03:46:45;24.30;47.30
19060;DHT22;9663;48.996;8.334;2022-07-23T03:49:11;24.30;47.30
19060;DHT22;9663;48.996;8.334;2022-07-23T03:51:36;24.30;47.30
19060;DHT22;9663;48.996;8.334;2022-07-23T03:54:02;24.30;47.30
19060;DHT22;9663;48.996;8.334;2022-07-23T03:56:28;24.30;47.30
19060;DHT22;9663;48.996;8.334;2022-07-23T03:58:53;24.30;47.40
19060;DHT22;9663;48.996;8.334;2022-07-23T04:01:19;24.30;47.40
19060;DHT22;9663;48.996;8.334;2022-07-23T04:03:45;24.30;47.40
19060;DHT22;9663;48.996;8.334;2022-07-23T04:06:11;24.20;47.40
19060;DHT22;9663;48.996;8.334;2022-07-23T04:08:37;24.10;48.20
19060;DHT22;9663;48.996;8.334;2022-07-23T04:11:03;24.10;47.60
19060;DHT22;9663;48.996;8.334;2022-07-23T04:13:29;24.10;47.60
19060;DHT22;9663;48.996;8.334;2022-07-23T04:15:55;24.00;47.70
19060;DHT22;9663;48.996;8.334;2022-07-23T04:18:20;24.00;47.80
19060;DHT22;9663;48.996;8.334;2022-07-23T04:20:50;23.90;47.80
19060;DHT22;9663;48.996;8.334;2022-07-23T04:23:16;24.00;47.90
19060;DHT22;9663;48.996;8.334;2022-07-23T04:25:42;23.90;48.10
19060;DHT22;9663;48.996;8.334;2022-07-23T04:28:08;24.00;48.10
19060;DHT22;9663;48.996;8.334;2022-07-23T04:30:35;24.00;48.20
19060;DHT22;9663;48.996;8.334;2022-07-23T04:33:01;24.00;48.40
19060;DHT22;9663;48.996;8.334;2022-07-23T04:35:26;24.00;48.40
19060;DHT22;9663;48.996;8.334;2022-07-23T04:37:52;23.90;48.30
19060;DHT22;9663;48.996;8.334;2022-07-23T04:40:18;23.90;48.50
19060;DHT22;9663;48.996;8.334;2022-07-23T04:42:44;23.80;48.50
19060;DHT22;9663;48.996;8.334;2022-07-23T04:45:09;23.80;48.70
19060;DHT22;9663;48.996;8.334;2022-07-23T04:47:35;23.80;48.70
19060;DHT22;9663;48.996;8.334;2022-07-23T04:50:01;23.80;48.80
19060;DHT22;9663;48.996;8.334;2022-07-23T04:52:26;23.80;48.90
19060;DHT22;9663;48.996;8.334;2022-07-23T04:54:52;23.80;49.10
19060;DHT22;9663;48.996;8.334;2022-07-23T04:57:18;23.80;49.20
19060;DHT22;9663;48.996;8.334;2022-07-23T04:59:43;23.90;49.40
19060;DHT22;9663;48.996;8.334;2022-07-23T05:02:09;23.90;50.00
19060;DHT22;9663;48.996;8.334;2022-07-23T05:04:34;23.90;49.40
19060;DHT22;9663;48.996;8.334;2022-07-23T05:07:00;23.90;49.20
19060;DHT22;9663;48.996;8.334;2022-07-23T05:09:26;23.90;49.30
19060;DHT22;9663;48.996;8.334;2022-07-23T05:11:52;23.90;49.30
19060;DHT22;9663;48.996;8.334;2022-07-23T05:14:18;23.90;49.40
19060;DHT22;9663;48.996;8.334;2022-07-23T05:16:43;23.90;49.50
19060;DHT22;9663;48.996;8.334;2022-07-23T05:19:09;23.90;49.60
19060;DHT22;9663;48.996;8.334;2022-07-23T05:21:35;23.90;49.60
19060;DHT22;9663;48.996;8.334;2022-07-23T05:24:00;24.00;49.80
19060;DHT22;9663;48.996;8.334;2022-07-23T05:26:26;24.10;50.00
19060;DHT22;9663;48.996;8.334;2022-07-23T05:28:52;24.10;50.00
19060;DHT22;9663;48.996;8.334;2022-07-23T05:31:18;24.20;50.00
19060;DHT22;9663;48.996;8.334;2022-07-23T05:33:44;24.30;50.00
19060;DHT22;9663;48.996;8.334;2022-07-23T05:36:10;24.50;50.00
19060;DHT22;9663;48.996;8.334;2022-07-23T05:38:36;24.60;50.00
19060;DHT22;9663;48.996;8.334;2022-07-23T05:41:02;24.60;49.90
19060;DHT22;9663;48.996;8.334;2022-07-23T05:43:28;24.70;49.80
19060;DHT22;9663;48.996;8.334;2022-07-23T05:45:54;24.70;49.70
19060;DHT22;9663;48.996;8.334;2022-07-23T05:48:20;24.70;49.60
19060;DHT22;9663;48.996;8.334;2022-07-23T05:50:47;24.70;49.50
19060;DHT22;9663;48.996;8.334;2022-07-23T05:53:13;24.70;49.70
19060;DHT22;9663;48.996;8.334;2022-07-23T05:55:39;24.70;49.60
19060;DHT22;9663;48.996;8.334;2022-07-23T05:58:05;24.60;49.80
19060;DHT22;9663;48.996;8.334;2022-07-23T06:00:31;24.60;50.00
19060;DHT22;9663;48.996;8.334;2022-07-23T06:02:57;24.60;50.00
19060;DHT22;9663;48.996;8.334;2022-07-23T06:05:23;24.60;50.10
19060;DHT22;9663;48.996;8.334;2022-07-23T06:07:49;24.70;50.20
19060;DHT22;9663;48.996;8.334;2022-07-23T06:10:15;24.60;50.20
19060;DHT22;9663;48.996;8.334;2022-07-23T06:12:41;24.60;50.30
19060;DHT22;9663;48.996;8.334;2022-07-23T06:15:08;24.60;50.40
19060;DHT22;9663;48.996;8.334;2022-07-23T06:17:34;24.60;50.60
19060;DHT22;9663;48.996;8.334;2022-07-23T06:20:00;24.70;50.70
19060;DHT22;9663;48.996;8.334;2022-07-23T06:22:26;24.70;50.70
19060;DHT22;9663;48.996;8.334;2022-07-23T06:24:51;24.80;50.60
19060;DHT22;9663;48.996;8.334;2022-07-23T06:27:18;24.90;50.60
19060;DHT22;9663;48.996;8.334;2022-07-23T06:29:43;24.90;50.50
19060;DHT22;9663;48.996;8.334;2022-07-23T06:32:09;25.00;50.40
19060;DHT22;9663;48.996;8.334;2022-07-23T06:34:35;25.00;50.40
19060;DHT22;9663;48.996;8.334;2022-07-23T06:37:01;25.10;50.40
19060;DHT22;9663;48.996;8.334;2022-07-23T06:39:27;25.20;50.30
19060;DHT22;9663;48.996;8.334;2022-07-23T06:41:52;25.20;50.30
19060;DHT22;9663;48.996;8.334;2022-07-23T06:44:18;25.30;50.30
19060;DHT22;9663;48.996;8.334;2022-07-23T06:46:44;25.50;50.30
19060;DHT22;9663;48.996;8.334;2022-07-23T06:49:10;25.50;50.90
19060;DHT22;9663;48.996;8.334;2022-07-23T06:51:35;25.60;50.20
19060;DHT22;9663;48.996;8.334;2022-07-23T06:54:02;25.70;50.10
19060;DHT22;9663;48.996;8.334;2022-07-23T06:56:28;25.80;50.10
19060;DHT22;9663;48.996;8.334;2022-07-23T06:58:53;25.80;49.90
19060;DHT22;9663;48.996;8.334;2022-07-23T07:01:19;25.80;50.00
19060;DHT22;9663;48.996;8.334;2022-07-23T07:03:45;25.70;49.80
19060;DHT22;9663;48.996;8.334;2022-07-23T07:06:11;25.80;49.80
19060;DHT22;9663;48.996;8.334;2022-07-23T07:08:37;25.80;49.80
19060;DHT22;9663;48.996;8.334;2022-07-23T07:11:03;25.70;49.70
19060;DHT22;9663;48.996;8.334;2022-07-23T07:13:28;25.70;49.80
19060;DHT22;9663;48.996;8.334;2022-07-23T07:15:54;25.70;50.00
19060;DHT22;9663;48.996;8.334;2022-07-23T07:18:20;25.70;50.00
19060;DHT22;9663;48.996;8.334;2022-07-23T07:20:46;25.70;49.90
19060;DHT22;9663;48.996;8.334;2022-07-23T07:23:12;25.80;50.00
19060;DHT22;9663;48.996;8.334;2022-07-23T07:25:38;25.70;50.00
19060;DHT22;9663;48.996;8.334;2022-07-23T07:28:04;25.70;50.00
19060;DHT22;9663;48.996;8.334;2022-07-23T07:30:29;25.70;50.10
19060;DHT22;9663;48.996;8.334;2022-07-23T07:32:55;25.70;50.20
19060;DHT22;9663;48.996;8.334;2022-07-23T07:35:21;25.70;50.30
19060;DHT22;9663;48.996;8.334;2022-07-23T07:37:46;25.70;50.40
19060;DHT22;9663;48.996;8.334;2022-07-23T07:40:12;25.80;50.70
19060;DHT22;9663;48.996;8.334;2022-07-23T07:42:49;25.90;50.70
19060;DHT22;9663;48.996;8.334;2022-07-23T07:45:19;26.00;50.90
19060;DHT22;9663;48.996;8.334;2022-07-23T07:47:45;26.10;50.60
19060;DHT22;9663;48.996;8.334;2022-07-23T07:50:11;26.20;50.50
19060;DHT22;9663;48.996;8.334;2022-07-23T07:52:37;26.50;50.60
19060;DHT22;9663;48.996;8.334;2022-07-23T07:55:08;26.60;50.50
19060;DHT22;9663;48.996;8.334;2022-07-23T07:57:35;26.80;50.30
19060;DHT22;9663;48.996;8.334;2022-07-23T08:00:01;26.90;49.90
19060;DHT22;9663;48.996;8.334;2022-07-23T08:02:27;27.10;49.80
19060;DHT22;9663;48.996;8.334;2022-07-23T08:04:52;27.20;49.60
19060;DHT22;9663;48.996;8.334;2022-07-23T08:07:18;27.20;49.40
19060;DHT22;9663;48.996;8.334;2022-07-23T08:09:44;27.20;49.40
19060;DHT22;9663;48.996;8.334;2022-07-23T08:12:10;27.30;49.40
19060;DHT22;9663;48.996;8.334;2022-07-23T08:14:35;27.30;49.30
19060;DHT22;9663;48.996;8.334;2022-07-23T08:17:01;27.30;49.30
19060;DHT22;9663;48.996;8.334;2022-07-23T08:19:27;27.40;49.30
19060;DHT22;9663;48.996;8.334;2022-07-23T08:21:52;27.50;49.20
19060;DHT22;9663;48.996;8.334;2022-07-23T08:24:18;27.60;49.20
19060;DHT22;9663;48.996;8.334;2022-07-23T08:26:44;27.60;49.20
19060;DHT22;9663;48.996;8.334;2022-07-23T08:29:09;27.60;49.10
19060;DHT22;9663;48.996;8.334;2022-07-23T08:31:35;27.70;49.90
19060;DHT22;9663;48.996;8.334;2022-07-23T08:34:01;27.80;49.20
19060;DHT22;9663;48.996;8.334;2022-07-23T08:36:28;27.90;49.20
19060;DHT22;9663;48.996;8.334;2022-07-23T08:38:58;28.00;49.00
19060;DHT22;9663;48.996;8.334;2022-07-23T08:41:24;28.10;48.90
19060;DHT22;9663;48.996;8.334;2022-07-23T08:43:51;28.20;48.70
19060;DHT22;9663;48.996;8.334;2022-07-23T08:46:19;28.30;48.80
19060;DHT22;9663;48.996;8.334;2022-07-23T08:48:47;28.40;48.60
19060;DHT22;9663;48.996;8.334;2022-07-23T08:51:14;28.40;48.50
19060;DHT22;9663;48.996;8.334;2022-07-23T08:53:40;28.50;48.60
19060;DHT22;9663;48.996;8.334;2022-07-23T08:56:07;28.60;48.60
19060;DHT22;9663;48.996;8.334;2022-07-23T08:58:33;28.70;48.20
19060;DHT22;9663;48.996;8.334;2022-07-23T09:01:01;28.70;48.10
19060;DHT22;9663;48.996;8.334;2022-07-23T09:03:35;28.80;48.10
19060;DHT22;9663;48.996;8.334;2022-07-23T09:06:03;28.80;48.10
19060;DHT22;9663;48.996;8.334;2022-07-23T09:08:40;28.90;48.20
19060;DHT22;9663;48.996;8.334;2022-07-23T09:11:12;29.00;47.80
19060;DHT22;9663;48.996;8.334;2022-07-23T09:13:52;29.00;47.90
19060;DHT22;9663;48.996;8.334;2022-07-23T09:16:30;29.00;47.70
19060;DHT22;9663;48.996;8.334;2022-07-23T09:19:05;29.10;47.70
19060;DHT22;9663;48.996;8.334;2022-07-23T09:21:34;29.30;47.80
19060;DHT22;9663;48.996;8.334;2022-07-23T09:24:06;29.30;47.70
19060;DHT22;9663;48.996;8.334;2022-07-23T09:29:18;29.50;47.50
19060;DHT22;9663;48.996;8.334;2022-07-23T09:32:00;29.60;47.30
19060;DHT22;9663;48.996;8.334;2022-07-23T09:34:32;29.70;47.30
19060;DHT22;9663;48.996;8.334;2022-07-23T09:37:14;29.80;47.50
19060;DHT22;9663;48.996;8.334;2022-07-23T09:39:44;29.90;47.10
19060;DHT22;9663;48.996;8.334;2022-07-23T09:42:22;30.10;47.10
19060;DHT22;9663;48.996;8.334;2022-07-23T09:44:54;30.20;47.00
19060;DHT22;9663;48.996;8.334;2022-07-23T09:47:23;30.30;46.70
19060;DHT22;9663;48.996;8.334;2022-07-23T09:50:08;30.40;46.70
19060;DHT22;9663;48.996;8.334;2022-07-23T09:52:55;30.50;46.30
19060;DHT22;9663;48.996;8.334;2022-07-23T09:55:31;30.60;45.90
19060;DHT22;9663;48.996;8.334;2022-07-23T09:58:05;30.60;45.50
19060;DHT22;9663;48.996;8.334;2022-07-23T10:00:40;30.70;45.90
19060;DHT22;9663;48.996;8.334;2022-07-23T10:03:09;30.70;45.80
19060;DHT22;9663;48.996;8.334;2022-07-23T10:05:37;30.70;45.70
19060;DHT22;9663;48.996;8.334;2022-07-23T10:08:03;30.80;45.60
19060;DHT22;9663;48.996;8.334;2022-07-23T10:10:30;30.80;45.40
19060;DHT22;9663;48.996;8.334;2022-07-23T10:12:57;30.90;45.50
19060;DHT22;9663;48.996;8.334;2022-07-23T10:15:41;30.90;45.30
19060;DHT22;9663;48.996;8.334;2022-07-23T10:18:09;31.00;45.20
19060;DHT22;9663;48.996;8.334;2022-07-23T10:20:35;31.00;45.10
19060;DHT22;9663;48.996;8.334;2022-07-23T10:23:18;31.10;45.20
19060;DHT22;9663;48.996;8.334;2022-07-23T10:26:00;31.10;44.90
19060;DHT22;9663;48.996;8.334;2022-07-23T10:31:34;31.40;44.90
19060;DHT22;9663;48.996;8.334;2022-07-23T10:34:29;31.50;44.60
19060;DHT22;9663;48.996;8.334;2022-07-23T10:40:09;31.70;44.60
19060;DHT22;9663;48.996;8.334;2022-07-23T10:42:46;31.90;44.10
19060;DHT22;9663;48.996;8.334;2022-07-23T10:45:35;32.00;44.20
19060;DHT22;9663;48.996;8.334;2022-07-23T10:48:25;32.10;43.90
19060;DHT22;9663;48.996;8.334;2022-07-23T10:51:12;32.10;43.50
19060;DHT22;9663;48.996;8.334;2022-07-23T10:53:53;32.30;43.60
19060;DHT22;9663;48.996;8.334;2022-07-23T10:56:49;32.40;43.20
19060;DHT22;9663;48.996;8.334;2022-07-23T10:59:16;32.50;42.60
19060;DHT22;9663;48.996;8.334;2022-07-23T11:01:42;32.60;43.00
19060;DHT22;9663;48.996;8.334;2022-07-23T11:04:08;32.50;42.60
19060;DHT22;9663;48.996;8.334;2022-07-23T11:09:27;32.40;42.20
19060;DHT22;9663;48.996;8.334;2022-07-23T11:27:53;33.00;41.30
19060;DHT22;9663;48.996;8.334;2022-07-23T11:33:15;33.10;41.20
19060;DHT22;9663;48.996;8.334;2022-07-23T11:35:46;33.10;41.30
19060;DHT22;9663;48.996;8.334;2022-07-23T11:38:17;33.20;41.20
19060;DHT22;9663;48.996;8.334;2022-07-23T11:40:47;33.40;41.80
19060;DHT22;9663;48.996;8.334;2022-07-23T11:43:15;33.60;42.10
19060;DHT22;9663;48.996;8.334;2022-07-23T11:45:47;34.10;42.30
19060;DHT22;9663;48.996;8.334;2022-07-23T11:50:51;35.10;41.40
19060;DHT22;9663;48.996;8.334;2022-07-23T11:53:29;35.60;41.20
19060;DHT22;9663;48.996;8.334;2022-07-23T11:56:10;36.10;39.70
19060;DHT22;9663;48.996;8.334;2022-07-23T11:58:38;36.40;38.90
19060;DHT22;9663;48.996;8.334;2022-07-23T12:01:05;36.70;39.90
19060;DHT22;9663;48.996;8.334;2022-07-23T12:03:31;37.00;39.80
19060;DHT22;9663;48.996;8.334;2022-07-23T12:06:00;37.50;39.30
19060;DHT22;9663;48.996;8.334;2022-07-23T12:08:26;37.90;38.10
19060;DHT22;9663;48.996;8.334;2022-07-23T12:10:52;38.20;37.90
19060;DHT22;9663;48.996;8.334;2022-07-23T12:13:20;38.20;37.00
19060;DHT22;9663;48.996;8.334;2022-07-23T12:15:56;38.00;36.20
19060;DHT22;9663;48.996;8.334;2022-07-23T12:18:25;37.80;36.00
19060;DHT22;9663;48.996;8.334;2022-07-23T12:20:55;37.60;36.20
19060;DHT22;9663;48.996;8.334;2022-07-23T12:23:25;37.60;36.30
19060;DHT22;9663;48.996;8.334;2022-07-23T12:25:52;37.60;36.30
19060;DHT22;9663;48.996;8.334;2022-07-23T12:28:21;37.70;36.40
19060;DHT22;9663;48.996;8.334;2022-07-23T12:30:58;37.90;36.20
19060;DHT22;9663;48.996;8.334;2022-07-23T12:33:30;38.40;36.70
19060;DHT22;9663;48.996;8.334;2022-07-23T12:35:59;38.80;36.10
19060;DHT22;9663;48.996;8.334;2022-07-23T12:38:35;39.10;35.70
19060;DHT22;9663;48.996;8.334;2022-07-23T12:41:05;39.30;35.30
19060;DHT22;9663;48.996;8.334;2022-07-23T12:43:34;39.40;35.10
19060;DHT22;9663;48.996;8.334;2022-07-23T12:46:21;39.50;33.90
19060;DHT22;9663;48.996;8.334;2022-07-23T12:51:15;39.60;34.00
19060;DHT22;9663;48.996;8.334;2022-07-23T12:53:51;39.80;34.00
19060;DHT22;9663;48.996;8.334;2022-07-23T12:56:44;40.10;33.20
19060;DHT22;9663;48.996;8.334;2022-07-23T12:59:13;40.30;32.00
19060;DHT22;9663;48.996;8.334;2022-07-23T13:01:45;40.30;32.70
19060;DHT22;9663;48.996;8.334;2022-07-23T13:04:21;40.40;32.10
19060;DHT22;9663;48.996;8.334;2022-07-23T13:06:50;40.60;32.40
19060;DHT22;9663;48.996;8.334;2022-07-23T13:09:23;40.80;32.30
19060;DHT22;9663;48.996;8.334;2022-07-23T13:11:52;41.00;31.30
19060;DHT22;9663;48.996;8.334;2022-07-23T13:14:20;41.20;31.60
19060;DHT22;9663;48.996;8.334;2022-07-23T13:16:50;41.30;30.90
19060;DHT22;9663;48.996;8.334;2022-07-23T13:19:18;41.30;31.40
19060;DHT22;9663;48.996;8.334;2022-07-23T13:21:44;41.10;30.50
19060;DHT22;9663;48.996;8.334;2022-07-23T13:24:11;41.00;30.10
19060;DHT22;9663;48.996;8.334;2022-07-23T13:26:38;40.80;30.20
19060;DHT22;9663;48.996;8.334;2022-07-23T13:29:05;40.70;30.20
19060;DHT22;9663;48.996;8.334;2022-07-23T13:31:31;40.90;30.90
19060;DHT22;9663;48.996;8.334;2022-07-23T13:33:57;41.20;30.20
19060;DHT22;9663;48.996;8.334;2022-07-23T13:36:23;41.40;30.30
19060;DHT22;9663;48.996;8.334;2022-07-23T13:38:49;41.70;30.00
19060;DHT22;9663;48.996;8.334;2022-07-23T13:41:16;41.90;29.90
19060;DHT22;9663;48.996;8.334;2022-07-23T13:43:43;42.20;29.90
19060;DHT22;9663;48.996;8.334;2022-07-23T13:46:09;42.60;29.90
19060;DHT22;9663;48.996;8.334;2022-07-23T13:48:35;42.80;29.30
19060;DHT22;9663;48.996;8.334;2022-07-23T13:51:01;42.60;28.70
19060;DHT22;9663;48.996;8.334;2022-07-23T13:53:26;42.50;28.60
19060;DHT22;9663;48.996;8.334;2022-07-23T13:55:53;42.20;28.30
19060;DHT22;9663;48.996;8.334;2022-07-23T13:58:20;42.00;28.40
19060;DHT22;9663;48.996;8.334;2022-07-23T14:00:49;41.80;28.20
19060;DHT22;9663;48.996;8.334;2022-07-23T14:03:18;41.50;27.90
19060;DHT22;9663;48.996;8.334;2022-07-23T14:05:45;41.00;27.80
19060;DHT22;9663;48.996;8.334;2022-07-23T14:08:11;40.40;27.70
19060;DHT22;9663;48.996;8.334;2022-07-23T14:10:36;39.90;28.00
19060;DHT22;9663;48.996;8.334;2022-07-23T14:13:02;39.50;28.70
19060;DHT22;9663;48.996;8.334;2022-07-23T14:15:30;39.30;28.90
19060;DHT22;9663;48.996;8.334;2022-07-23T14:17:56;39.20;28.90
19060;DHT22;9663;48.996;8.334;2022-07-23T14:20:23;39.10;29.00
19060;DHT22;9663;48.996;8.334;2022-07-23T14:22:49;39.20;29.50
19060;DHT22;9663;48.996;8.334;2022-07-23T14:25:15;39.40;29.60
19060;DHT22;9663;48.996;8.334;2022-07-23T14:27:45;39.70;29.50
19060;DHT22;9663;48.996;8.334;2022-07-23T14:30:11;40.10;29.20
19060;DHT22;9663;48.996;8.334;2022-07-23T14:32:37;40.50;28.90
19060;DHT22;9663;48.996;8.334;2022-07-23T14:35:04;40.80;28.80
19060;DHT22;9663;48.996;8.334;2022-07-23T14:37:31;41.40;28.80
19060;DHT22;9663;48.996;8.334;2022-07-23T14:39:57;41.80;28.50
19060;DHT22;9663;48.996;8.334;2022-07-23T14:42:23;42.10;27.90
19060;DHT22;9663;48.996;8.334;2022-07-23T14:44:48;42.10;27.10
19060;DHT22;9663;48.996;8.334;2022-07-23T14:47:14;41.90;26.70
19060;DHT22;9663;48.996;8.334;2022-07-23T14:49:40;41.40;26.60
19060;DHT22;9663;48.996;8.334;2022-07-23T14:52:06;40.90;26.50
19060;DHT22;9663;48.996;8.334;2022-07-23T14:54:33;40.40;26.90
19060;DHT22;9663;48.996;8.334;2022-07-23T14:57:00;39.90;27.00
19060;DHT22;9663;48.996;8.334;2022-07-23T14:59:28;39.70;27.50
19060;DHT22;9663;48.996;8.334;2022-07-23T15:01:56;39.70;28.00
19060;DHT22;9663;48.996;8.334;2022-07-23T15:04:23;39.80;28.20
19060;DHT22;9663;48.996;8.334;2022-07-23T15:06:49;40.20;28.50
19060;DHT22;9663;48.996;8.334;2022-07-23T15:09:15;40.60;28.30
19060;DHT22;9663;48.996;8.334;2022-07-23T15:11:41;40.80;27.80
19060;DHT22;9663;48.996;8.334;2022-07-23T15:14:08;40.80;27.10
19060;DHT22;9663;48.996;8.334;2022-07-23T15:16:34;40.50;26.80
19060;DHT22;9663;48.996;8.334;2022-07-23T15:19:00;40.00;26.70
19060;DHT22;9663;48.996;8.334;2022-07-23T15:21:27;39.50;26.80
19060;DHT22;9663;48.996;8.334;2022-07-23T15:23:55;39.10;27.20
19060;DHT22;9663;48.996;8.334;2022-07-23T15:26:25;39.00;28.10
19060;DHT22;9663;48.996;8.334;2022-07-23T15:28:51;39.10;28.00
19060;DHT22;9663;48.996;8.334;2022-07-23T15:31:17;39.30;28.10
19060;DHT22;9663;48.996;8.334;2022-07-23T15:33:42;39.70;28.10
19060;DHT22;9663;48.996;8.334;2022-07-23T15:36:08;40.00;28.10
19060;DHT22;9663;48.996;8.334;2022-07-23T15:38:35;40.20;27.70
19060;DHT22;9663;48.996;8.334;2022-07-23T15:41:00;40.40;27.60
19060;DHT22;9663;48.996;8.334;2022-07-23T15:43:26;40.60;27.50
19060;DHT22;9663;48.996;8.334;2022-07-23T15:45:52;40.70;27.40
19060;DHT22;9663;48.996;8.334;2022-07-23T15:48:19;40.90;27.50
19060;DHT22;9663;48.996;8.334;2022-07-23T15:50:46;40.90;27.10
19060;DHT22;9663;48.996;8.334;2022-07-23T15:53:13;40.80;26.70
19060;DHT22;9663;48.996;8.334;2022-07-23T15:55:39;40.40;26.50
19060;DHT22;9663;48.996;8.334;2022-07-23T15:58:05;40.10;26.50
19060;DHT22;9663;48.996;8.334;2022-07-23T16:00:32;39.80;26.90
19060;DHT22;9663;48.996;8.334;2022-07-23T16:02:58;39.50;27.00
19060;DHT22;9663;48.996;8.334;2022-07-23T16:05:24;39.20;26.90
19060;DHT22;9663;48.996;8.334;2022-07-23T16:07:50;38.90;27.10
19060;DHT22;9663;48.996;8.334;2022-07-23T16:10:15;38.80;27.90
19060;DHT22;9663;48.996;8.334;2022-07-23T16:12:41;38.90;27.90
19060;DHT22;9663;48.996;8.334;2022-07-23T16:15:07;39.00;28.10
19060;DHT22;9663;48.996;8.334;2022-07-23T16:17:33;39.10;27.90
19060;DHT22;9663;48.996;8.334;2022-07-23T16:19:59;39.10;27.60
19060;DHT22;9663;48.996;8.334;2022-07-23T16:22:25;39.00;27.80
19060;DHT22;9663;48.996;8.334;2022-07-23T16:24:51;39.20;28.10